Time;durP1;ratioP1;P1;durP2;ratioP2;P2;SDS_P1;SDS_P2;PMS_P1;PMS_P2;Temp;Humidity;BMP_temperature;BMP_pressure;BME280_temperature;BME280_humidity;BME280_pressure;Samples;Min_cycle;Max_cycle;Signal;HPM_P1;HPM_P2
2022/09/07 00:00:00;;;;;;;7.60;5.68;;;;;;;16.70;67.93;95122.41;4205662;28;20052;-64
2022/09/07 00:02:02;;;;;;;7.95;5.72;;;;;;;16.88;67.13;95122.81;4207770;28;20056;-64
2022/09/07 00:04:04;;;;;;;10.52;5.55;;;;;;;16.96;66.65;95127.19;4210491;28;20970;-63
2022/09/07 00:06:09;;;;;;;7.80;5.57;;;;;;;17.12;66.13;95121.66;4211883;28;20319;-65
2022/09/07 00:08:11;;;;;;;8.25;5.85;;;;;;;17.24;65.64;95129.09;4213582;28;20048;-62
2022/09/07 00:10:13;;;;;;;7.47;5.22;;;;;;;17.32;65.55;95131.59;4209534;28;20060;-59
2022/09/07 00:12:14;;;;;;;9.40;5.47;;;;;;;17.41;65.18;95135.75;4211660;28;20048;-58
2022/09/07 00:14:16;;;;;;;7.22;5.78;;;;;;;17.48;64.83;95130.50;4212439;28;20145;-59
2022/09/07 00:16:21;;;;;;;7.85;5.68;;;;;;;17.47;64.57;95128.88;4211616;28;20048;-59
2022/09/07 00:18:23;;;;;;;8.18;5.72;;;;;;;17.51;64.61;95127.47;4210071;28;20056;-59
2022/09/07 00:20:25;;;;;;;6.57;5.13;;;;;;;17.53;64.19;95128.09;4213991;28;20059;-59
2022/09/07 00:22:27;;;;;;;6.50;5.38;;;;;;;17.55;64.44;95134.03;4211473;28;20466;-59
2022/09/07 00:24:29;;;;;;;11.95;5.18;;;;;;;17.57;64.33;95135.50;4206684;28;20590;-58
2022/09/07 00:26:31;;;;;;;10.52;6.03;;;;;;;17.58;64.17;95137.13;4212954;28;20048;-60
2022/09/07 00:28:33;;;;;;;8.63;5.22;;;;;;;17.57;64.19;95130.19;4201687;28;20102;-59
2022/09/07 00:30:40;;;;;;;6.35;5.22;;;;;;;17.56;63.91;95125.88;4198461;28;20045;-59
2022/09/07 00:32:42;;;;;;;6.88;4.93;;;;;;;17.56;63.77;95128.53;4213021;28;20044;-58
2022/09/07 00:34:43;;;;;;;6.55;5.07;;;;;;;17.55;63.72;95126.91;4210263;28;20074;-58
2022/09/07 00:36:45;;;;;;;6.85;5.00;;;;;;;17.55;63.92;95128.72;4203848;28;20048;-58
2022/09/07 00:38:48;;;;;;;9.57;5.30;;;;;;;17.53;63.71;95128.09;4209461;28;20048;-57
2022/09/07 00:40:49;;;;;;;7.78;5.53;;;;;;;17.54;63.57;95135.03;4201495;28;20043;-59
2022/09/07 00:42:51;;;;;;;6.05;4.93;;;;;;;17.45;63.89;95131.72;4212720;28;20121;-60
2022/09/07 00:45:01;;;;;;;7.72;5.68;;;;;;;17.46;63.89;95128.03;4202612;28;20572;-59
2022/09/07 00:47:11;;;;;;;5.93;5.32;;;;;;;17.46;64.09;95127.22;4211507;28;20084;-59
2022/09/07 00:49:17;;;;;;;9.63;5.25;;;;;;;17.49;63.87;95125.03;4211939;28;20076;-59
2022/09/07 00:51:32;;;;;;;7.95;5.63;;;;;;;17.49;63.77;95135.63;4212215;28;20484;-59
2022/09/07 00:53:38;;;;;;;8.85;5.85;;;;;;;17.55;63.62;95126.91;4210440;28;20060;-59
2022/09/07 00:55:42;;;;;;;6.88;5.60;;;;;;;17.54;63.43;95130.56;4211785;28;20055;-59
2022/09/07 00:57:48;;;;;;;6.25;5.63;;;;;;;17.53;63.80;95125.44;4200537;28;20541;-58
2022/09/07 00:59:51;;;;;;;6.38;5.30;;;;;;;17.55;63.52;95121.63;4213101;28;20044;-57
2022/09/07 01:01:53;;;;;;;;;;;;;;;17.55;63.38;95126.91;4208752;28;20106;-59
2022/09/07 01:03:56;;;;;;;6.30;5.25;;;;;;;17.57;63.34;95119.59;4197882;28;20365;-58
2022/09/07 01:06:10;;;;;;;11.15;5.35;;;;;;;17.60;63.59;95123.69;4210291;28;20404;-59
2022/09/07 01:08:12;;;;;;;6.65;5.50;;;;;;;17.54;63.56;95125.25;4203426;28;20124;-59
2022/09/07 01:10:14;;;;;;;9.30;6.03;;;;;;;17.52;63.45;95116.69;4196716;28;20063;-58
2022/09/07 01:12:16;;;;;;;6.50;5.90;;;;;;;17.53;63.58;95114.84;4200207;28;20105;-59
2022/09/07 01:14:21;;;;;;;6.47;5.40;;;;;;;17.51;63.65;95117.72;4198529;28;20059;-59
2022/09/07 01:16:38;;;;;;;7.75;5.63;;;;;;;17.52;63.86;95121.97;4197331;28;20052;-59
2022/09/07 01:18:57;;;;;;;7.07;5.43;;;;;;;17.54;63.40;95116.50;4204693;28;20044;-60
2022/09/07 01:21:07;;;;;;;7.10;5.47;;;;;;;17.51;63.36;95120.34;4198559;28;20098;-59
2022/09/07 01:23:37;;;;;;;12.95;6.47;;;;;;;17.52;63.54;95121.97;4195998;28;20059;-59
2022/09/07 01:26:09;;;;;;;11.05;6.18;;;;;;;17.48;63.80;95115.44;4196135;28;20052;-59
2022/09/07 01:28:22;;;;;;;11.65;6.32;;;;;;;17.46;63.83;95108.69;4203595;28;20082;-59
2022/09/07 01:30:24;;;;;;;9.80;5.63;;;;;;;17.46;63.57;95117.44;4211189;28;20528;-59
2022/09/07 01:32:47;;;;;;;10.50;5.88;;;;;;;17.47;63.37;95118.28;4172732;28;20678;-59
2022/09/07 01:34:52;;;;;;;9.32;5.85;;;;;;;17.46;63.54;95112.16;4180469;28;20105;-59
2022/09/07 01:37:15;;;;;;;14.43;5.72;;;;;;;17.47;63.65;95105.84;4211515;28;20040;-60
2022/09/07 01:39:18;;;;;;;9.45;6.20;;;;;;;17.37;63.77;95105.38;4212674;28;20048;-59
2022/09/07 01:41:32;;;;;;;10.93;6.40;;;;;;;17.30;64.01;95105.31;4194100;28;20044;-59
2022/09/07 01:44:01;;;;;;;9.63;6.10;;;;;;;17.29;64.34;95110.78;4209002;28;20051;-58
2022/09/07 01:46:08;;;;;;;8.50;5.95;;;;;;;17.30;64.07;95113.25;4210166;28;20081;-60
2022/09/07 01:48:13;;;;;;;7.00;5.43;;;;;;;17.30;64.16;95113.25;4210417;28;20419;-60
2022/09/07 01:50:17;;;;;;;7.03;5.78;;;;;;;17.29;64.29;95114.25;4205367;28;20443;-59
2022/09/07 01:52:32;;;;;;;7.70;5.28;;;;;;;17.32;64.24;95115.72;4208466;28;20052;-58
2022/09/07 01:55:00;;;;;;;7.65;5.80;;;;;;;17.30;64.00;95110.59;4210846;28;20070;-58
2022/09/07 01:57:06;;;;;;;9.10;5.80;;;;;;;17.28;64.08;95115.28;4197980;28;20477;-65
2022/09/07 01:59:17;;;;;;;9.57;6.00;;;;;;;17.28;64.18;95115.28;4196689;28;20045;-63
2022/09/07 02:01:21;;;;;;;9.02;5.57;;;;;;;17.25;64.15;95112.16;4208582;28;20051;-63
2022/09/07 02:03:52;;;;;;;7.82;5.40;;;;;;;17.24;64.08;95111.34;4210415;28;20052;-65
2022/09/07 02:06:03;;;;;;;8.32;6.05;;;;;;;17.22;64.12;95107.28;4204984;28;20634;-64
2022/09/07 02:08:21;;;;;;;8.32;6.00;;;;;;;17.19;64.16;95104.00;4210932;28;20589;-65
2022/09/07 02:10:27;;;;;;;7.20;5.60;;;;;;;17.18;64.07;95105.00;4210678;28;20389;-64
2022/09/07 02:13:08;;;;;;;6.75;5.57;;;;;;;17.19;63.97;95106.63;4203797;28;20053;-64
2022/09/07 02:15:14;;;;;;;8.27;5.45;;;;;;;17.15;64.14;95107.22;4204518;28;20059;-64
2022/09/07 02:17:18;;;;;;;7.13;5.45;;;;;;;17.14;64.30;95103.75;4202408;28;20060;-64
2022/09/07 02:19:21;;;;;;;8.10;5.75;;;;;;;17.13;64.17;95107.41;4212209;28;20086;-66
2022/09/07 02:21:27;;;;;;;7.87;5.63;;;;;;;17.12;64.15;95111.06;4203246;28;20048;-63
2022/09/07 02:23:32;;;;;;;7.15;6.45;;;;;;;17.06;64.30;95106.53;4199754;28;20063;-65
2022/09/07 02:25:47;;;;;;;7.75;6.35;;;;;;;17.06;64.42;95100.41;4210154;28;20055;-62
2022/09/07 02:27:49;;;;;;;;;;;;;;;17.02;64.32;95099.97;4202552;28;20093;-65
2022/09/07 02:29:51;;;;;;;10.60;6.28;;;;;;;16.96;64.50;95101.53;4206514;28;20380;-65
2022/09/07 02:31:53;;;;;;;7.43;5.88;;;;;;;16.97;64.54;95105.81;4210897;28;20055;-65
2022/09/07 02:33:55;;;;;;;6.57;5.40;;;;;;;16.96;64.84;95100.72;4211772;28;20113;-65
2022/09/07 02:35:57;;;;;;;7.68;5.97;;;;;;;16.96;64.85;95092.78;4209401;28;20055;-64
2022/09/07 02:38:04;;;;;;;7.15;5.50;;;;;;;16.90;64.92;95098.81;4201433;28;20063;-65
2022/09/07 02:40:07;;;;;;;15.77;6.75;;;;;;;16.73;65.76;95090.25;4203840;28;20265;-65
2022/09/07 02:42:09;;;;;;;7.23;5.60;;;;;;;16.74;65.66;95087.44;4199045;28;20198;-65
2022/09/07 02:44:33;;;;;;;7.15;5.78;;;;;;;16.71;65.32;95087.81;4197144;28;20285;-64
2022/09/07 02:47:13;;;;;;;9.85;6.28;;;;;;;16.64;65.55;95089.56;4210596;28;20135;-65
2022/09/07 02:49:43;;;;;;;9.93;5.93;;;;;;;16.63;65.49;95093.22;4196755;28;20052;-67
2022/09/07 02:51:59;;;;;;;7.90;5.90;;;;;;;16.67;65.48;95091.84;4201274;28;20048;-65
2022/09/07 02:54:21;;;;;;;7.65;6.20;;;;;;;16.72;65.63;95094.75;4210535;28;20125;-64
2022/09/07 02:56:26;;;;;;;10.00;6.03;;;;;;;16.75;65.12;95107.59;4210902;28;20142;-65
2022/09/07 02:59:00;;;;;;;6.03;5.25;;;;;;;16.74;65.07;95102.50;4207732;28;20051;-65
2022/09/07 03:01:14;;;;;;;9.60;5.95;;;;;;;16.80;64.97;95107.06;4198441;28;20097;-64
2022/09/07 03:03:15;;;;;;;;;;;;;;;16.82;64.77;95105.06;4203943;28;20070;-63
2022/09/07 03:05:25;;;;;;;7.20;5.90;;;;;;;16.83;65.06;95101.41;4210235;28;19920;-65
2022/09/07 03:07:38;;;;;;;8.48;5.30;;;;;;;16.83;65.03;95105.88;4207545;28;20059;-64
2022/09/07 03:09:48;;;;;;;7.50;5.47;;;;;;;16.84;64.98;95105.66;4209940;28;20053;-64
2022/09/07 03:11:50;;;;;;;9.27;5.32;;;;;;;16.85;64.71;95102.03;4208638;28;20109;-64
2022/09/07 03:13:58;;;;;;;10.23;5.28;;;;;;;16.87;64.47;95102.66;4207219;28;20533;-65
2022/09/07 03:16:00;;;;;;;10.15;5.82;;;;;;;16.87;64.28;95100.03;4209363;28;20105;-66
2022/09/07 03:18:02;;;;;;;8.38;5.82;;;;;;;16.88;64.35;95106.94;4206843;28;20052;-67
2022/09/07 03:20:04;;;;;;;6.18;5.30;;;;;;;16.82;64.43;95107.72;4208276;28;20052;-67
2022/09/07 03:22:06;;;;;;;6.07;5.47;;;;;;;16.83;64.49;95103.22;4206708;28;20138;-66
2022/09/07 03:24:08;;;;;;;9.52;6.57;;;;;;;16.82;64.88;95091.00;4207459;28;20044;-66
2022/09/07 03:26:21;;;;;;;13.15;5.97;;;;;;;16.83;64.89;95100.59;4207070;28;20082;-64
2022/09/07 03:28:23;;;;;;;9.65;6.40;;;;;;;16.59;65.08;95100.72;4206265;28;20366;-65
2022/09/07 03:30:25;;;;;;;9.82;6.50;;;;;;;16.36;65.93;95100.03;4206673;28;20055;-65
2022/09/07 03:32:32;;;;;;;13.27;7.18;;;;;;;16.29;66.50;95105.22;4209899;28;20492;-65
2022/09/07 03:34:35;;;;;;;9.75;6.32;;;;;;;16.20;66.65;95111.63;4203489;28;20102;-67
2022/09/07 03:36:36;;;;;;;11.77;6.85;;;;;;;16.07;67.06;95114.09;4210326;28;20055;-66
2022/09/07 03:38:38;;;;;;;10.70;6.82;;;;;;;16.09;67.11;95106.78;4208347;28;20047;-65
2022/09/07 03:40:40;;;;;;;8.00;6.68;;;;;;;16.13;66.72;95116.00;4209844;28;20048;-66
2022/09/07 03:42:42;;;;;;;8.65;6.68;;;;;;;16.12;66.57;95117.81;4213405;28;20472;-65
2022/09/07 03:44:44;;;;;;;9.23;6.88;;;;;;;16.20;66.40;95122.22;4213787;28;20052;-65
2022/09/07 03:46:45;;;;;;;9.95;6.85;;;;;;;16.26;66.09;95118.84;4212465;28;20089;-65
2022/09/07 03:48:49;;;;;;;8.60;6.55;;;;;;;16.30;65.89;95117.44;4213285;28;20109;-67
2022/09/07 03:51:05;;;;;;;9.88;6.38;;;;;;;16.33;65.83;95117.09;4213896;28;20113;-65
2022/09/07 03:53:07;;;;;;;10.75;6.43;;;;;;;16.34;65.46;95118.72;4211785;28;20098;-66
2022/09/07 03:55:09;;;;;;;12.05;6.50;;;;;;;16.34;66.12;95121.34;4214265;28;20094;-64
2022/09/07 03:57:11;;;;;;;10.68;6.75;;;;;;;16.01;65.77;95123.56;4214077;28;20102;-66
2022/09/07 03:59:13;;;;;;;7.88;6.85;;;;;;;15.66;67.46;95117.97;4212946;28;20591;-64
2022/09/07 04:01:17;;;;;;;14.50;7.22;;;;;;;15.67;68.08;95116.94;4212043;28;20062;-67
2022/09/07 04:03:19;;;;;;;14.43;7.03;;;;;;;15.81;67.54;95122.44;4211944;28;20177;-65
2022/09/07 04:05:21;;;;;;;10.10;7.03;;;;;;;15.57;67.80;95124.28;4213196;28;20055;-66
2022/09/07 04:07:22;;;;;;;7.68;6.88;;;;;;;15.19;68.73;95136.69;4211398;28;20067;-65
2022/09/07 04:09:24;;;;;;;21.38;18.95;;;;;;;14.60;70.92;95130.13;4213266;28;20105;-63
2022/09/07 04:11:26;;;;;;;16.95;12.70;;;;;;;14.50;71.92;95129.50;4215356;28;20105;-61
2022/09/07 04:13:29;;;;;;;10.65;7.65;;;;;;;14.46;72.12;95128.22;4216171;28;20055;-61
2022/09/07 04:15:31;;;;;;;19.13;11.70;;;;;;;14.65;71.64;95129.63;4213460;28;20602;-58
2022/09/07 04:17:32;;;;;;;17.17;12.95;;;;;;;14.80;71.37;95127.03;4212613;28;20070;-59
2022/09/07 04:19:34;;;;;;;12.15;8.70;;;;;;;15.02;70.86;95133.34;4212753;28;20052;-61
2022/09/07 04:21:36;;;;;;;13.10;7.63;;;;;;;15.20;69.84;95136.50;4214316;28;20059;-58
2022/09/07 04:23:39;;;;;;;14.90;7.80;;;;;;;15.39;69.12;95134.38;4210719;28;20051;-60
2022/09/07 04:25:47;;;;;;;10.33;6.97;;;;;;;15.57;68.33;95138.34;4212798;28;20051;-60
2022/09/07 04:27:49;;;;;;;9.27;7.30;;;;;;;15.70;67.60;95137.72;4213684;28;20299;-59
2022/09/07 04:29:51;;;;;;;14.25;7.15;;;;;;;15.86;67.21;95138.59;4212051;28;20063;-57
2022/09/07 04:31:52;;;;;;;9.30;6.88;;;;;;;15.95;66.76;95125.09;4209347;28;20469;-58
2022/09/07 04:33:55;;;;;;;12.10;7.25;;;;;;;16.07;66.35;95127.31;4213680;28;20052;-59
2022/09/07 04:36:01;;;;;;;11.65;6.82;;;;;;;16.15;66.05;95133.31;4210286;28;20109;-59
2022/09/07 04:38:03;;;;;;;12.35;6.68;;;;;;;16.23;65.45;95132.41;4209510;28;20048;-60
2022/09/07 04:40:05;;;;;;;9.68;6.70;;;;;;;16.30;65.03;95130.66;4211147;28;20080;-59
2022/09/07 04:42:07;;;;;;;8.38;6.43;;;;;;;16.38;65.03;95135.84;4201252;28;20070;-61
2022/09/07 04:44:09;;;;;;;8.43;6.78;;;;;;;16.24;65.04;95135.84;4198907;28;20052;-58
2022/09/07 04:46:22;;;;;;;11.48;6.20;;;;;;;15.82;66.20;95135.50;4212738;28;20423;-56
2022/09/07 04:48:24;;;;;;;12.82;7.85;;;;;;;15.35;67.63;95140.00;4204974;28;20112;-59
2022/09/07 04:50:26;;;;;;;15.10;9.48;;;;;;;14.85;69.37;95145.81;4208409;28;20469;-60
2022/09/07 04:52:27;;;;;;;20.52;11.90;;;;;;;14.66;70.44;95149.72;4207656;28;20143;-58
2022/09/07 04:54:29;;;;;;;18.55;12.02;;;;;;;14.70;70.63;95149.19;4213504;28;20109;-67
2022/09/07 04:56:31;;;;;;;13.68;10.93;;;;;;;14.88;70.32;95151.53;4213009;28;20052;-63
2022/09/07 04:58:35;;;;;;;13.20;8.85;;;;;;;15.18;69.52;95154.31;4213140;28;20488;-63
2022/09/07 05:00:38;;;;;;;11.20;8.45;;;;;;;15.35;68.54;95149.75;4212841;28;20056;-64
2022/09/07 05:02:40;;;;;;;8.77;7.50;;;;;;;15.40;67.41;95144.78;4204191;28;20060;-63
2022/09/07 05:04:42;;;;;;;9.65;7.57;;;;;;;15.49;67.79;95150.81;4212831;28;20324;-65
2022/09/07 05:06:43;;;;;;;16.95;7.85;;;;;;;15.63;67.27;95157.91;4212384;28;20117;-64
2022/09/07 05:08:47;;;;;;;10.98;7.45;;;;;;;15.85;66.30;95160.72;4212486;28;20537;-66
2022/09/07 05:10:50;;;;;;;11.63;7.43;;;;;;;15.86;65.96;95152.63;4212088;28;20055;-64
2022/09/07 05:12:52;;;;;;;11.18;7.30;;;;;;;16.00;65.64;95153.63;4214313;28;20056;-65
2022/09/07 05:14:54;;;;;;;10.65;7.22;;;;;;;16.07;65.19;95154.56;4216618;28;20067;-65
2022/09/07 05:16:55;;;;;;;11.95;7.22;;;;;;;16.12;65.02;95152.19;4212663;28;20040;-65
2022/09/07 05:19:00;;;;;;;10.38;6.93;;;;;;;16.04;64.89;95157.53;4212349;28;20048;-67
2022/09/07 05:21:12;;;;;;;12.50;7.13;;;;;;;15.93;65.08;95158.81;4212732;28;20072;-65
2022/09/07 05:23:13;;;;;;;10.85;7.50;;;;;;;15.96;65.12;95157.66;4212321;28;20158;-69
2022/09/07 05:25:15;;;;;;;10.95;7.82;;;;;;;16.05;64.64;95159.19;4211176;28;20614;-65
2022/09/07 05:27:17;;;;;;;15.80;7.32;;;;;;;16.11;64.61;95160.28;4212030;28;20060;-66
2022/09/07 05:29:20;;;;;;;12.27;7.25;;;;;;;16.31;64.04;95150.81;4211000;28;20513;-66
2022/09/07 05:31:41;;;;;;;12.25;7.60;;;;;;;16.50;63.06;95145.97;4208073;28;20101;-64
2022/09/07 05:33:51;;;;;;;9.60;7.35;;;;;;;16.66;62.99;95144.94;4211863;28;20470;-68
2022/09/07 05:36:13;;;;;;;12.35;7.68;;;;;;;16.83;62.05;95150.84;4211616;28;20130;-68
2022/09/07 05:38:15;;;;;;;17.70;7.40;;;;;;;16.95;61.96;95152.84;4209590;28;20044;-68
2022/09/07 05:40:17;;;;;;;19.63;7.90;;;;;;;17.10;61.57;95155.44;4210824;28;20059;-67
2022/09/07 05:42:19;;;;;;;12.30;7.40;;;;;;;17.23;61.19;95154.75;4212107;28;20048;-64
2022/09/07 05:44:21;;;;;;;10.95;7.25;;;;;;;17.35;61.07;95152.41;4203904;28;20052;-67
2022/09/07 05:46:42;;;;;;;11.30;6.53;;;;;;;17.51;60.25;95146.84;4201763;28;20135;-66
2022/09/07 05:48:44;;;;;;;11.77;7.05;;;;;;;17.67;60.58;95142.28;4210615;28;20052;-67
2022/09/07 05:50:52;;;;;;;12.15;6.35;;;;;;;17.81;59.90;95146.69;4208878;28;20539;-65
2022/09/07 05:52:54;;;;;;;10.35;5.50;;;;;;;17.90;58.47;95145.53;4208810;28;20598;-65
2022/09/07 05:54:55;;;;;;;13.57;5.13;;;;;;;17.93;57.88;95144.34;4196246;28;20044;-64
2022/09/07 05:57:13;;;;;;;11.13;4.95;;;;;;;17.94;57.83;95143.31;4196397;28;20489;-66
2022/09/07 05:59:15;;;;;;;18.88;5.53;;;;;;;18.00;57.53;95140.72;4211895;28;20047;-65
2022/09/07 06:01:17;;;;;;;8.23;4.20;;;;;;;18.06;57.21;95139.09;4194572;28;20052;-66
2022/09/07 06:03:19;;;;;;;11.55;4.38;;;;;;;18.15;57.14;95145.06;4195387;28;20127;-66
2022/09/07 06:05:21;;;;;;;6.43;4.25;;;;;;;18.04;56.11;95141.13;4205850;28;20060;-67
2022/09/07 06:07:23;;;;;;;11.68;4.47;;;;;;;17.95;56.37;95140.47;4209856;28;20168;-66
2022/09/07 06:09:25;;;;;;;9.80;4.68;;;;;;;18.07;56.56;95153.19;4203842;28;20043;-65
2022/09/07 06:11:31;;;;;;;12.50;4.78;;;;;;;18.07;56.04;95151.38;4207994;28;20067;-67
2022/09/07 06:13:33;;;;;;;8.18;4.30;;;;;;;18.16;56.10;95158.16;4208010;28;20058;-65
2022/09/07 06:15:35;;;;;;;13.75;3.92;;;;;;;18.31;55.88;95152.72;4214566;28;20048;-64
2022/09/07 06:17:37;;;;;;;12.60;4.05;;;;;;;18.42;55.40;95152.16;4210942;28;20044;-62
2022/09/07 06:19:39;;;;;;;7.32;4.32;;;;;;;18.50;55.60;95155.66;4211546;28;20105;-59
2022/09/07 06:21:40;;;;;;;7.00;4.30;;;;;;;18.38;54.47;95147.47;4199690;28;20096;-59
2022/09/07 06:23:43;;;;;;;6.63;3.70;;;;;;;18.16;54.29;95144.88;4198302;28;20126;-60
2022/09/07 06:25:48;;;;;;;5.18;3.55;;;;;;;18.24;54.92;95145.72;4195540;28;20056;-61
2022/09/07 06:27:52;;;;;;;11.85;3.53;;;;;;;18.39;54.74;95149.06;4204960;28;20100;-59
2022/09/07 06:29:54;;;;;;;5.45;3.25;;;;;;;18.57;54.64;95152.03;4198364;28;20071;-66
2022/09/07 06:31:56;;;;;;;6.72;4.03;;;;;;;18.69;53.39;95159.41;4211642;28;20105;-67
2022/09/07 06:34:18;;;;;;;8.27;4.47;;;;;;;18.74;53.58;95152.50;4200960;28;20083;-65
2022/09/07 06:36:21;;;;;;;9.13;4.20;;;;;;;18.77;53.00;95148.63;4208726;28;20101;-66
2022/09/07 06:38:24;;;;;;;4.50;3.03;;;;;;;18.86;52.84;95147.47;4193023;28;20045;-67
2022/09/07 06:40:33;;;;;;;5.18;3.25;;;;;;;18.85;52.62;95153.81;4195616;28;20052;-65
2022/09/07 06:42:34;;;;;;;7.30;4.13;;;;;;;18.96;53.12;95149.75;4194859;28;20060;-68
2022/09/07 06:44:36;;;;;;;7.82;3.10;;;;;;;19.07;51.88;95151.00;4200817;28;20454;-65
2022/09/07 06:46:38;;;;;;;5.25;3.60;;;;;;;19.06;51.39;95149.34;4208681;28;20825;-67
2022/09/07 06:48:59;;;;;;;6.47;3.25;;;;;;;18.75;51.95;95163.94;4207937;28;20052;-66
2022/09/07 06:51:13;;;;;;;6.35;3.40;;;;;;;18.37;52.37;95162.56;4211490;28;20422;-66
2022/09/07 06:53:15;;;;;;;5.55;2.58;;;;;;;18.18;52.93;95163.25;4209671;28;20541;-65
2022/09/07 06:55:43;;;;;;;11.32;3.35;;;;;;;18.45;53.15;95166.88;4200992;28;20048;-65
2022/09/07 06:57:45;;;;;;;11.88;3.00;;;;;;;18.46;51.84;95168.53;4202323;28;20459;-65
2022/09/07 06:59:47;;;;;;;6.35;2.83;;;;;;;18.31;52.09;95170.47;4203901;28;20040;-66
2022/09/07 07:01:49;;;;;;;5.22;3.10;;;;;;;18.15;52.51;95169.75;4209175;28;20105;-64
2022/09/07 07:03:52;;;;;;;5.43;3.22;;;;;;;17.92;52.89;95177.97;4200680;28;20048;-65
2022/09/07 07:05:54;;;;;;;4.40;2.65;;;;;;;17.70;53.45;95173.69;4207485;28;20660;-65
2022/09/07 07:07:56;;;;;;;8.13;3.00;;;;;;;17.79;53.77;95176.00;4209866;28;20040;-67
2022/09/07 07:09:58;;;;;;;8.15;3.00;;;;;;;17.94;53.51;95170.66;4204094;28;20048;-67
2022/09/07 07:12:00;;;;;;;8.98;3.10;;;;;;;18.22;53.10;95169.81;4204843;28;20109;-66
2022/09/07 07:14:02;;;;;;;5.30;2.60;;;;;;;18.45;52.53;95172.16;4204050;28;20113;-65
2022/09/07 07:16:11;;;;;;;4.90;2.88;;;;;;;18.72;52.03;95169.66;4213134;28;20059;-65
2022/09/07 07:18:13;;;;;;;6.88;2.92;;;;;;;18.60;51.70;95177.34;4199625;28;20048;-66
2022/09/07 07:20:31;;;;;;;7.50;2.85;;;;;;;18.70;51.48;95171.69;4198307;28;20396;-66
2022/09/07 07:22:33;;;;;;;7.25;3.53;;;;;;;18.68;51.37;95171.06;4204230;28;20473;-65
2022/09/07 07:24:50;;;;;;;3.50;2.55;;;;;;;18.88;50.94;95169.31;4204182;28;20048;-68
2022/09/07 07:26:52;;;;;;;6.55;3.15;;;;;;;19.14;51.28;95171.22;4204695;28;20058;-68
2022/09/07 07:28:55;;;;;;;7.85;3.13;;;;;;;19.45;51.03;95169.88;4204330;28;21007;-68
2022/09/07 07:31:01;;;;;;;6.80;3.20;;;;;;;19.74;50.57;95165.22;4208016;28;20057;-69
2022/09/07 07:33:09;;;;;;;5.95;2.90;;;;;;;19.98;50.00;95171.75;4205377;28;20078;-70
2022/09/07 07:35:12;;;;;;;6.32;3.20;;;;;;;20.18;49.59;95174.41;4205554;28;20055;-66
2022/09/07 07:37:14;;;;;;;10.25;3.03;;;;;;;20.33;49.13;95175.00;4201991;28;20132;-66
2022/09/07 07:39:16;;;;;;;4.87;2.57;;;;;;;20.43;48.23;95172.72;4202689;28;20048;-65
2022/09/07 07:41:38;;;;;;;9.00;2.78;;;;;;;20.50;48.47;95172.72;4203508;28;20579;-67
2022/09/07 07:43:59;;;;;;;8.52;3.70;;;;;;;20.31;47.72;95174.38;4210915;28;20052;-67
2022/09/07 07:46:01;;;;;;;8.55;3.05;;;;;;;20.35;48.07;95172.94;4210534;28;20046;-66
2022/09/07 07:48:06;;;;;;;4.75;2.95;;;;;;;20.43;48.17;95170.06;4209178;28;20120;-68
2022/09/07 07:50:08;;;;;;;3.92;2.60;;;;;;;20.53;48.12;95171.47;4201282;28;20054;-67
2022/09/07 07:52:35;;;;;;;3.85;2.80;;;;;;;20.42;48.31;95165.75;4204844;28;20447;-66
2022/09/07 07:54:56;;;;;;;5.40;2.80;;;;;;;20.50;47.87;95169.19;4199293;28;20052;-67
2022/09/07 07:56:58;;;;;;;6.88;2.60;;;;;;;20.50;48.26;95169.19;4203447;28;20052;-66
2022/09/07 07:59:00;;;;;;;6.65;4.15;;;;;;;20.46;48.00;95171.47;4195384;28;20045;-67
2022/09/07 08:01:11;;;;;;;6.18;2.83;;;;;;;20.58;48.08;95174.34;4196226;28;20091;-67
2022/09/07 08:03:12;;;;;;;4.53;3.03;;;;;;;20.62;47.88;95173.69;4205840;28;20118;-67
2022/09/07 08:05:15;;;;;;;6.53;2.90;;;;;;;20.69;48.06;95167.53;4195036;28;20127;-67
2022/09/07 08:07:18;;;;;;;4.93;3.08;;;;;;;20.78;47.89;95161.78;4194335;28;20164;-68
2022/09/07 08:09:19;;;;;;;6.20;3.17;;;;;;;20.82;47.70;95170.16;4195973;28;20127;-66
2022/09/07 08:11:22;;;;;;;7.35;3.20;;;;;;;20.76;47.56;95171.03;4200648;28;20056;-60
2022/09/07 08:13:24;;;;;;;6.22;3.10;;;;;;;20.57;47.54;95164.69;4206667;28;20131;-60
2022/09/07 08:15:26;;;;;;;4.07;2.88;;;;;;;20.53;47.99;95166.94;4206183;28;20051;-61
2022/09/07 08:17:28;;;;;;;5.20;3.00;;;;;;;20.55;48.14;95169.41;4209335;28;20047;-59
2022/09/07 08:19:30;;;;;;;5.55;2.80;;;;;;;20.18;48.65;95164.59;4198922;28;20047;-61
2022/09/07 08:21:31;;;;;;;8.52;3.10;;;;;;;19.96;49.53;95171.97;4198705;28;20484;-61
2022/09/07 08:23:33;;;;;;;5.95;2.90;;;;;;;19.83;49.86;95172.81;4197237;28;20083;-59
2022/09/07 08:25:35;;;;;;;6.25;3.05;;;;;;;20.05;49.36;95165.41;4213241;28;20130;-60
2022/09/07 08:27:37;;;;;;;8.43;3.15;;;;;;;20.20;49.17;95165.19;4203858;28;20062;-62
2022/09/07 08:29:38;;;;;;;6.00;3.30;;;;;;;20.34;49.43;95162.50;4207914;28;20051;-59
2022/09/07 08:31:40;;;;;;;5.60;2.90;;;;;;;20.60;48.84;95159.78;4204671;28;20063;-60
2022/09/07 08:33:42;;;;;;;6.53;3.25;;;;;;;20.92;48.12;95157.19;4205620;28;20151;-61
2022/09/07 08:36:01;;;;;;;4.60;2.92;;;;;;;21.24;48.09;95155.38;4204230;28;20047;-67
2022/09/07 08:38:03;;;;;;;7.40;2.92;;;;;;;21.56;47.41;95157.28;4201879;28;20496;-66
2022/09/07 08:40:05;;;;;;;18.13;4.80;;;;;;;21.79;47.09;95154.00;4200293;28;20573;-66
2022/09/07 08:42:18;;;;;;;7.78;3.22;;;;;;;21.97;46.90;95143.41;4211876;28;20058;-66
2022/09/07 08:44:25;;;;;;;9.27;3.30;;;;;;;22.06;46.83;95144.75;4202288;28;20440;-67
2022/09/07 08:46:50;;;;;;;6.45;3.20;;;;;;;22.16;46.28;95149.59;4208866;28;20539;-67
2022/09/07 08:48:53;;;;;;;8.27;2.90;;;;;;;22.40;45.97;95144.47;4207562;28;20056;-70
2022/09/07 08:51:04;;;;;;;6.40;3.30;;;;;;;22.50;45.06;95144.75;4198062;28;20088;-66
2022/09/07 08:53:17;;;;;;;5.20;3.22;;;;;;;22.56;45.06;95143.03;4205372;28;20131;-67
2022/09/07 08:55:35;;;;;;;6.85;3.38;;;;;;;22.76;44.71;95138.28;4207225;28;20128;-66
2022/09/07 08:57:40;;;;;;;6.53;3.03;;;;;;;22.48;44.74;95142.31;4195774;28;20460;-66
2022/09/07 08:59:48;;;;;;;7.25;2.97;;;;;;;22.36;45.18;95132.59;4202607;28;20938;-65
2022/09/07 09:01:49;;;;;;;4.50;2.95;;;;;;;22.36;45.43;95132.59;4200190;28;20412;-65
2022/09/07 09:04:26;;;;;;;3.92;3.03;;;;;;;22.04;45.69;95130.81;4197479;28;20048;-68
2022/09/07 09:06:57;;;;;;;5.60;2.88;;;;;;;22.25;45.24;95128.81;4196731;28;20044;-66
2022/09/07 09:09:31;;;;;;;5.18;3.55;;;;;;;22.44;45.18;95133.09;4197657;28;20473;-67
2022/09/07 09:11:51;;;;;;;7.70;3.35;;;;;;;22.43;45.07;95134.13;4197701;28;20129;-65
2022/09/07 09:14:08;;;;;;;5.57;3.40;;;;;;;22.16;44.94;95116.75;4198409;28;20140;-66
2022/09/07 09:16:22;;;;;;;5.43;2.85;;;;;;;21.84;45.98;95119.53;4206299;28;20101;-65
2022/09/07 09:18:41;;;;;;;8.82;2.88;;;;;;;21.65;46.39;95108.78;4212388;28;20531;-68
2022/09/07 09:20:48;;;;;;;7.03;3.40;;;;;;;22.03;46.21;95110.50;4196735;28;20044;-68
2022/09/07 09:22:51;;;;;;;5.60;3.58;;;;;;;22.05;45.26;95105.78;4207648;28;20055;-65
2022/09/07 09:25:22;;;;;;;4.72;3.20;;;;;;;22.02;45.77;95111.53;4210166;28;20167;-66
2022/09/07 09:27:23;;;;;;;5.45;2.97;;;;;;;22.30;45.52;95110.25;4199081;28;20139;-66
2022/09/07 09:29:25;;;;;;;11.18;3.45;;;;;;;22.56;44.27;95103.00;4201348;28;20061;-70
2022/09/07 09:31:32;;;;;;;9.20;3.42;;;;;;;22.68;44.31;95110.03;4197369;28;20079;-68
2022/09/07 09:33:34;;;;;;;6.50;3.03;;;;;;;22.48;44.22;95099.59;4197491;28;20044;-68
2022/09/07 09:35:37;;;;;;;5.13;3.33;;;;;;;22.31;44.61;95098.56;4197435;28;20052;-71
2022/09/07 09:37:40;;;;;;;6.83;3.40;;;;;;;22.36;45.10;95096.03;4209161;28;20174;-66
2022/09/07 09:39:43;;;;;;;6.05;3.78;;;;;;;22.60;44.50;95101.50;4206059;28;20066;-67
2022/09/07 09:41:45;;;;;;;5.55;3.78;;;;;;;22.78;44.46;95093.47;4205269;28;20048;-68
2022/09/07 09:43:57;;;;;;;10.75;3.97;;;;;;;23.07;44.29;95096.41;4211136;28;20132;-69
2022/09/07 09:45:59;;;;;;;5.40;3.50;;;;;;;23.35;44.13;95087.75;4199180;28;20047;-68
2022/09/07 09:48:31;;;;;;;6.78;3.25;;;;;;;23.58;43.38;95088.88;4204873;28;20102;-68
2022/09/07 09:50:36;;;;;;;4.85;3.05;;;;;;;23.82;42.59;95082.50;4209897;28;20056;-66
2022/09/07 09:52:59;;;;;;;6.72;3.03;;;;;;;24.03;41.75;95083.78;4209809;28;20048;-69
2022/09/07 09:55:01;;;;;;;4.20;2.95;;;;;;;23.77;41.40;95089.59;4203010;28;20051;-67